createdAt,value
2018-12-26T00:00:46.574Z,62.50
2018-12-26T00:03:12.817Z,62.20
2018-12-26T00:05:39.139Z,62.10
2018-12-26T00:08:05.391Z,62.20
2018-12-26T00:10:31.626Z,62.30
2018-12-26T00:12:57.876Z,62.10
2018-12-26T00:15:24.164Z,62.40
2018-12-26T00:17:50.420Z,62.30
2018-12-26T00:20:16.687Z,62.50
2018-12-26T00:22:42.949Z,62.70
2018-12-26T00:25:09.265Z,62.50
2018-12-26T00:27:35.492Z,62.10
2018-12-26T00:30:02.603Z,62.10
2018-12-26T00:32:30.748Z,62.10
2018-12-26T00:34:56.987Z,62.20
2018-12-26T00:37:23.972Z,63.10
2018-12-26T00:39:50.224Z,62.40
2018-12-26T00:42:16.598Z,62.90
2018-12-26T00:44:42.864Z,62.50
2018-12-26T00:47:09.119Z,62.20
2018-12-26T00:49:35.376Z,62.20
2018-12-26T00:52:02.386Z,62.20
2018-12-26T00:54:28.612Z,62.40
2018-12-26T00:56:55.617Z,62.30
2018-12-26T00:59:21.852Z,62.30
2018-12-26T01:01:48.115Z,62.20
2018-12-26T01:04:14.344Z,62.20
2018-12-26T01:06:40.663Z,62.10
2018-12-26T01:09:06.940Z,62.10
2018-12-26T01:11:33.901Z,62.10
2018-12-26T01:14:00.386Z,62.10
2018-12-26T01:16:26.641Z,62.70
2018-12-26T01:18:53.616Z,62.70
2018-12-26T01:21:19.928Z,62.70
2018-12-26T01:23:46.181Z,62.30
2018-12-26T01:26:19.119Z,62.30
2018-12-26T01:28:39.571Z,62.20
2018-12-26T01:31:05.842Z,62.20
2018-12-26T01:33:32.080Z,62.20
2018-12-26T01:35:59.181Z,62.70
2018-12-26T01:38:25.453Z,62.60
2018-12-26T01:40:51.974Z,62.60
2018-12-26T01:43:18.271Z,62.70
2018-12-26T01:45:44.548Z,62.20
2018-12-26T01:48:11.531Z,62.90
2018-12-26T01:50:37.788Z,62.80
2018-12-26T01:53:04.095Z,63.20
2018-12-26T01:55:30.327Z,62.60
2018-12-26T01:57:56.564Z,62.50
2018-12-26T02:00:22.794Z,62.40
2018-12-26T02:02:49.033Z,62.30
2018-12-26T02:05:15.272Z,62.20
2018-12-26T02:07:42.275Z,62.20
2018-12-26T02:10:08.536Z,62.20
2018-12-26T02:12:34.786Z,62.20
2018-12-26T02:15:01.787Z,62.10
2018-12-26T02:17:28.074Z,62.10
2018-12-26T02:19:54.358Z,62.90
2018-12-26T02:22:20.619Z,62.40
2018-12-26T02:24:46.866Z,62.40
2018-12-26T02:27:13.116Z,62.30
2018-12-26T02:29:39.400Z,62.30
2018-12-26T02:32:07.295Z,62.80
2018-12-26T02:34:33.559Z,62.80
2018-12-26T02:36:59.819Z,62.80
2018-12-26T02:39:26.887Z,63.50
2018-12-26T02:41:53.184Z,63.50
2018-12-26T02:44:20.175Z,62.60
2018-12-26T02:46:47.262Z,62.50
2018-12-26T02:49:13.537Z,62.50
2018-12-26T02:51:39.772Z,62.80
2018-12-26T02:54:06.000Z,62.90
2018-12-26T02:56:32.241Z,62.70
2018-12-26T02:58:58.477Z,62.90
2018-12-26T03:01:24.920Z,63.30
2018-12-26T03:03:51.140Z,63.70
2018-12-26T03:06:17.421Z,63.50
2018-12-26T03:08:43.696Z,63.50
2018-12-26T03:11:09.916Z,63.50
2018-12-26T03:13:36.174Z,63.40
2018-12-26T03:16:02.457Z,63.10
2018-12-26T03:18:28.712Z,63.30
2018-12-26T03:20:54.971Z,63.20
2018-12-26T03:23:21.989Z,63.30
2018-12-26T03:25:48.220Z,63.30
2018-12-26T03:28:14.465Z,62.40
2018-12-26T03:30:40.724Z,62.30
2018-12-26T03:33:06.969Z,62.90
2018-12-26T03:35:33.221Z,62.60
2018-12-26T03:37:59.507Z,62.40
2018-12-26T03:40:26.507Z,62.30
2018-12-26T03:42:52.779Z,62.30
2018-12-26T03:45:19.828Z,62.30
2018-12-26T03:47:46.088Z,62.20
2018-12-26T03:50:12.332Z,63.00
2018-12-26T03:52:38.591Z,62.90
2018-12-26T03:55:05.688Z,62.30
2018-12-26T03:57:32.503Z,62.20
2018-12-26T03:59:58.741Z,62.60
2018-12-26T04:02:25.126Z,62.80
2018-12-26T04:04:51.281Z,62.80
2018-12-26T04:07:17.549Z,63.30
2018-12-26T04:09:43.802Z,63.30
2018-12-26T04:12:10.049Z,62.90
2018-12-26T04:14:36.297Z,62.60
2018-12-26T04:17:02.576Z,62.60
2018-12-26T04:19:28.856Z,62.20
2018-12-26T04:21:55.377Z,62.30
2018-12-26T04:24:22.392Z,61.10
2018-12-26T04:26:48.615Z,61.10
2018-12-26T04:29:15.672Z,61.80
2018-12-26T04:31:41.909Z,62.40
2018-12-26T04:34:08.900Z,62.30
2018-12-26T04:36:35.145Z,62.30
2018-12-26T04:39:01.409Z,62.20
2018-12-26T04:41:28.392Z,62.30
2018-12-26T04:43:54.656Z,62.20
2018-12-26T04:46:20.905Z,62.20
2018-12-26T04:48:47.157Z,62.30
2018-12-26T04:51:14.142Z,63.20
2018-12-26T04:53:40.390Z,63.20
2018-12-26T04:56:06.656Z,63.40
2018-12-26T04:58:33.908Z,63.30
2018-12-26T05:01:00.895Z,62.90
2018-12-26T05:03:27.155Z,63.00
2018-12-26T05:05:53.396Z,63.00
2018-12-26T05:08:19.611Z,63.00
2018-12-26T05:10:45.872Z,63.20
2018-12-26T05:13:12.868Z,63.50
2018-12-26T05:15:39.152Z,63.40
2018-12-26T05:18:06.132Z,62.70
2018-12-26T05:20:32.392Z,62.70
2018-12-26T05:22:58.653Z,62.60
2018-12-26T05:25:25.279Z,62.30
2018-12-26T05:27:52.233Z,62.00
2018-12-26T05:30:18.590Z,62.00
2018-12-26T05:32:45.731Z,62.00
2018-12-26T05:35:11.961Z,62.20
2018-12-26T05:37:38.219Z,63.20
2018-12-26T05:40:04.489Z,63.40
2018-12-26T05:42:30.735Z,63.20
2018-12-26T05:44:57.046Z,63.10
2018-12-26T05:47:23.294Z,62.90
2018-12-26T05:49:49.528Z,62.70
2018-12-26T05:52:15.762Z,63.20
2018-12-26T05:54:42.014Z,62.70
2018-12-26T05:57:08.261Z,63.10
2018-12-26T05:59:34.479Z,63.50
2018-12-26T06:02:00.740Z,63.60
2018-12-26T06:04:28.087Z,64.00
2018-12-26T06:06:55.048Z,63.50
2018-12-26T06:09:21.276Z,63.50
2018-12-26T06:11:47.526Z,62.80
2018-12-26T06:14:13.773Z,63.10
2018-12-26T06:16:40.000Z,63.40
2018-12-26T06:19:06.251Z,63.40
2018-12-26T06:21:33.310Z,63.40
2018-12-26T06:23:59.609Z,63.30
2018-12-26T06:26:26.572Z,63.50
2018-12-26T06:28:52.864Z,63.50
2018-12-26T06:31:19.443Z,63.50
2018-12-26T06:33:45.686Z,63.10
2018-12-26T06:36:11.934Z,62.50
2018-12-26T06:38:38.236Z,62.50
2018-12-26T06:41:05.200Z,62.90
2018-12-26T06:43:32.308Z,62.90
2018-12-26T06:45:58.655Z,63.10
2018-12-26T06:48:25.692Z,63.40
2018-12-26T06:50:51.921Z,63.40
2018-12-26T06:53:18.916Z,62.80
2018-12-26T06:55:45.182Z,62.00
2018-12-26T06:58:12.275Z,62.70
2018-12-26T07:00:38.976Z,62.70
2018-12-26T07:03:05.940Z,62.50
2018-12-26T07:05:32.911Z,62.90
2018-12-26T07:07:59.141Z,62.90
2018-12-26T07:10:25.368Z,62.80
2018-12-26T07:12:51.584Z,63.30
2018-12-26T07:15:17.843Z,63.30
2018-12-26T07:17:44.083Z,62.60
2018-12-26T07:20:10.361Z,62.60
2018-12-26T07:22:36.599Z,63.00
2018-12-26T07:25:02.905Z,62.20
2018-12-26T07:27:30.588Z,62.20
2018-12-26T07:29:56.813Z,62.10
2018-12-26T07:32:23.680Z,62.10
2018-12-26T07:34:50.162Z,62.10
2018-12-26T07:37:17.149Z,62.00
2018-12-26T07:39:43.488Z,62.00
2018-12-26T07:42:09.655Z,62.20
2018-12-26T07:44:36.642Z,62.60
2018-12-26T07:47:02.908Z,62.60
2018-12-26T07:49:29.166Z,62.90
2018-12-26T07:51:55.419Z,63.10
2018-12-26T07:54:21.698Z,63.10
2018-12-26T07:56:54.885Z,62.90
2018-12-26T07:59:21.348Z,63.10
2018-12-26T08:01:48.303Z,63.60
2018-12-26T08:04:14.568Z,63.50
2018-12-26T08:06:41.098Z,63.30
2018-12-26T08:09:07.343Z,63.20
2018-12-26T08:11:34.143Z,62.50
2018-12-26T08:14:00.405Z,62.20
2018-12-26T08:16:26.644Z,62.70
2018-12-26T08:18:52.868Z,63.20
2018-12-26T08:21:19.121Z,63.30
2018-12-26T08:23:46.104Z,62.30
2018-12-26T08:26:12.608Z,62.30
2018-12-26T08:28:39.574Z,62.40
2018-12-26T08:31:05.789Z,62.30
2018-12-26T08:33:32.791Z,62.90
2018-12-26T08:35:59.001Z,62.90
2018-12-26T08:38:25.298Z,62.70
2018-12-26T08:40:51.536Z,62.20
2018-12-26T08:43:18.362Z,62.60
2018-12-26T08:45:45.508Z,62.70
2018-12-26T08:48:12.123Z,62.90
2018-12-26T08:50:39.554Z,63.80
2018-12-26T08:53:05.984Z,63.00
2018-12-26T08:55:32.256Z,62.90
2018-12-26T08:58:00.367Z,62.30
2018-12-26T09:00:27.389Z,62.00
2018-12-26T09:02:54.456Z,62.30
2018-12-26T09:05:20.744Z,62.00
2018-12-26T09:07:47.000Z,62.00
2018-12-26T09:10:15.285Z,62.30
2018-12-26T09:12:42.350Z,61.50
2018-12-26T09:15:08.614Z,61.40
2018-12-26T09:17:34.912Z,61.70
2018-12-26T09:20:01.438Z,62.00
2018-12-26T09:22:27.722Z,62.00
2018-12-26T09:24:53.995Z,62.00
2018-12-26T09:27:20.288Z,62.30
2018-12-26T09:29:46.523Z,62.90
2018-12-26T09:32:12.840Z,65.50
2018-12-26T09:34:39.209Z,62.70
2018-12-26T09:37:05.531Z,62.00
2018-12-26T09:39:32.572Z,62.60
2018-12-26T09:41:58.856Z,62.00
2018-12-26T09:44:25.900Z,62.70
2018-12-26T09:46:52.972Z,62.70
2018-12-26T09:49:19.232Z,62.30
2018-12-26T09:51:45.473Z,62.00
2018-12-26T09:54:12.493Z,62.20
2018-12-26T09:56:38.771Z,62.10
2018-12-26T09:59:05.803Z,62.10
2018-12-26T10:01:32.108Z,62.10
2018-12-26T10:03:58.709Z,62.00
2018-12-26T10:06:24.937Z,62.10
2018-12-26T10:08:51.156Z,62.10
2018-12-26T10:11:17.479Z,62.10
2018-12-26T10:13:44.473Z,62.10
2018-12-26T10:16:10.789Z,62.10
2018-12-26T10:18:37.075Z,62.00
2018-12-26T10:21:04.111Z,62.00
2018-12-26T10:23:31.137Z,61.50
2018-12-26T10:25:57.438Z,62.00
2018-12-26T10:28:23.752Z,62.00
2018-12-26T10:30:50.037Z,62.20
2018-12-26T10:33:16.291Z,62.30
2018-12-26T10:35:43.300Z,63.10
2018-12-26T10:38:10.314Z,63.00
2018-12-26T10:40:36.609Z,63.00
2018-12-26T10:43:03.218Z,62.90
2018-12-26T10:45:29.603Z,63.00
2018-12-26T10:47:55.851Z,62.50
2018-12-26T10:50:22.435Z,62.00
2018-12-26T10:52:49.448Z,62.20
2018-12-26T10:55:15.929Z,62.00
2018-12-26T10:57:42.485Z,62.10
2018-12-26T11:00:09.629Z,62.00
2018-12-26T11:02:36.068Z,62.00
2018-12-26T11:05:02.748Z,62.00
2018-12-26T11:07:29.388Z,62.00
2018-12-26T11:09:55.851Z,62.00
2018-12-26T11:12:22.635Z,61.90
2018-12-26T11:14:49.707Z,62.60
2018-12-26T11:17:16.402Z,62.00
2018-12-26T11:19:43.565Z,62.00
2018-12-26T11:22:10.314Z,62.00
2018-12-26T11:24:37.945Z,62.00
2018-12-26T11:27:04.914Z,62.00
2018-12-26T11:29:32.138Z,62.00
2018-12-26T11:31:59.684Z,61.90
2018-12-26T11:34:26.501Z,61.90
2018-12-26T11:36:53.231Z,61.90
2018-12-26T11:39:19.851Z,61.90
2018-12-26T11:41:46.505Z,61.90
2018-12-26T11:44:13.791Z,61.90
2018-12-26T11:46:41.131Z,61.20
2018-12-26T11:49:07.939Z,61.10
2018-12-26T11:51:35.140Z,61.30
2018-12-26T11:54:01.415Z,60.20
2018-12-26T11:56:28.499Z,60.50
2018-12-26T11:58:54.849Z,60.40
2018-12-26T12:01:21.672Z,61.20
2018-12-26T12:03:48.130Z,61.90
2018-12-26T12:06:14.545Z,60.70
2018-12-26T12:08:40.871Z,60.50
2018-12-26T12:11:07.404Z,60.90
2018-12-26T12:13:33.827Z,61.00
2018-12-26T12:16:00.266Z,61.00
2018-12-26T12:18:26.661Z,60.90
2018-12-26T12:20:53.057Z,61.40
2018-12-26T12:23:19.383Z,61.80
2018-12-26T12:25:45.747Z,61.50
2018-12-26T12:28:12.243Z,61.50
2018-12-26T12:30:38.870Z,61.10
2018-12-26T12:33:05.925Z,60.80
2018-12-26T12:35:32.429Z,60.80
2018-12-26T12:37:58.800Z,61.10
2018-12-26T12:40:26.943Z,60.20
2018-12-26T12:42:53.944Z,60.10
2018-12-26T12:45:20.307Z,60.10
2018-12-26T12:47:46.679Z,60.10
2018-12-26T12:50:12.965Z,60.30
2018-12-26T12:52:40.177Z,60.90
2018-12-26T12:55:07.336Z,60.10
2018-12-26T12:57:33.743Z,60.00
2018-12-26T13:00:00.168Z,60.90
2018-12-26T13:02:26.586Z,60.90
2018-12-26T13:04:53.147Z,61.00
2018-12-26T13:07:20.243Z,61.60
2018-12-26T13:09:47.244Z,60.10
2018-12-26T13:12:13.656Z,60.10
2018-12-26T13:14:40.659Z,60.80
2018-12-26T13:17:07.487Z,60.80
2018-12-26T13:19:33.883Z,60.80
2018-12-26T13:22:00.201Z,60.30
2018-12-26T13:24:26.525Z,60.30
2018-12-26T13:26:53.632Z,59.90
2018-12-26T13:29:21.111Z,60.10
2018-12-26T13:31:48.127Z,60.10
2018-12-26T13:34:16.342Z,60.10
2018-12-26T13:36:42.804Z,60.00
2018-12-26T13:39:09.907Z,60.80
2018-12-26T13:41:36.227Z,60.60
2018-12-26T13:44:04.223Z,60.70
2018-12-26T13:46:33.839Z,60.60
2018-12-26T13:48:57.246Z,60.20
2018-12-26T13:51:24.278Z,60.30
2018-12-26T13:53:50.643Z,60.30
2018-12-26T13:56:17.349Z,60.30
2018-12-26T13:58:43.711Z,60.00
2018-12-26T14:01:10.095Z,59.70
2018-12-26T14:03:36.401Z,59.60
2018-12-26T14:06:02.863Z,59.80
2018-12-26T14:08:29.168Z,60.00
2018-12-26T14:10:55.804Z,60.60
2018-12-26T14:13:23.200Z,60.70
2018-12-26T14:15:50.259Z,61.40
2018-12-26T14:18:16.487Z,60.70
2018-12-26T14:20:42.852Z,60.80
2018-12-26T14:23:09.103Z,60.70
2018-12-26T14:25:35.380Z,60.50
2018-12-26T14:28:02.003Z,60.40
2018-12-26T14:30:28.249Z,60.90
2018-12-26T14:32:55.343Z,61.40
2018-12-26T14:35:21.616Z,61.40
2018-12-26T14:37:47.900Z,60.90
2018-12-26T14:40:14.145Z,61.60
2018-12-26T14:42:40.493Z,61.10
2018-12-26T14:45:06.890Z,60.90
2018-12-26T14:47:40.207Z,61.10
2018-12-26T14:50:06.480Z,60.80
2018-12-26T14:52:33.453Z,60.50
2018-12-26T14:54:59.711Z,60.50
2018-12-26T14:57:26.038Z,60.60
2018-12-26T14:59:52.401Z,60.70
2018-12-26T15:02:19.435Z,60.40
2018-12-26T15:04:46.518Z,60.40
2018-12-26T15:07:12.821Z,60.30
2018-12-26T15:09:39.821Z,60.60
2018-12-26T15:12:06.461Z,60.60
2018-12-26T15:14:33.493Z,61.50
2018-12-26T15:16:59.750Z,61.50
2018-12-26T15:19:26.156Z,61.40
2018-12-26T15:21:53.239Z,61.60
2018-12-26T15:24:19.812Z,61.50
2018-12-26T15:26:46.153Z,61.60
2018-12-26T15:29:12.423Z,61.30
2018-12-26T15:31:38.675Z,60.10
2018-12-26T15:34:05.726Z,60.50
2018-12-26T15:36:31.997Z,60.40
2018-12-26T15:38:58.356Z,60.70
2018-12-26T15:41:24.613Z,60.70
2018-12-26T15:43:51.755Z,61.70
2018-12-26T15:46:18.821Z,61.60
2018-12-26T15:48:45.145Z,61.60
2018-12-26T15:51:11.529Z,61.50
2018-12-26T15:53:38.994Z,61.60
2018-12-26T15:56:04.116Z,61.60
2018-12-26T15:58:30.568Z,61.70
2018-12-26T16:00:56.821Z,61.70
2018-12-26T16:03:23.260Z,61.60
2018-12-26T16:05:49.656Z,61.60
2018-12-26T16:08:16.087Z,61.70
2018-12-26T16:10:43.055Z,62.50
2018-12-26T16:13:09.513Z,62.40
2018-12-26T16:15:35.751Z,62.10
2018-12-26T16:18:02.017Z,61.80
2018-12-26T16:20:28.380Z,61.90
2018-12-26T16:22:54.617Z,61.70
2018-12-26T16:25:21.011Z,61.70
2018-12-26T16:27:47.993Z,61.70
2018-12-26T16:30:14.283Z,61.70
2018-12-26T16:32:41.247Z,61.70
2018-12-26T16:35:07.588Z,61.70
2018-12-26T16:37:33.993Z,61.70
2018-12-26T16:40:01.075Z,61.80
2018-12-26T16:42:27.377Z,61.70
2018-12-26T16:44:53.855Z,61.80
2018-12-26T16:47:20.176Z,61.70
2018-12-26T16:49:46.416Z,61.70
2018-12-26T16:52:12.780Z,62.30
2018-12-26T16:54:39.818Z,61.80
2018-12-26T16:57:06.104Z,61.80
2018-12-26T16:59:32.544Z,61.80
2018-12-26T17:01:58.926Z,61.70
2018-12-26T17:04:25.262Z,62.30
2018-12-26T17:06:51.567Z,61.70
2018-12-26T17:09:17.804Z,61.90
2018-12-26T17:11:44.833Z,61.80
2018-12-26T17:14:11.119Z,61.80
2018-12-26T17:16:37.357Z,61.80
2018-12-26T17:19:04.761Z,62.00
2018-12-26T17:21:31.056Z,61.80
2018-12-26T17:23:57.290Z,61.90
2018-12-26T17:26:23.571Z,61.80
2018-12-26T17:28:49.859Z,61.90
2018-12-26T17:31:16.283Z,62.70
2018-12-26T17:33:42.600Z,62.50
2018-12-26T17:36:09.680Z,62.50
2018-12-26T17:38:35.986Z,62.50
2018-12-26T17:41:02.296Z,62.00
2018-12-26T17:43:28.543Z,62.20
2018-12-26T17:45:54.948Z,62.30
2018-12-26T17:48:21.421Z,62.50
2018-12-26T17:50:49.264Z,62.60
2018-12-26T17:53:18.506Z,62.60
2018-12-26T17:55:53.826Z,62.50
2018-12-26T17:58:20.089Z,62.50
2018-12-26T18:00:46.616Z,62.50
2018-12-26T18:03:12.910Z,62.60
2018-12-26T18:05:39.218Z,62.70
2018-12-26T18:08:05.535Z,62.70
2018-12-26T18:10:31.806Z,62.90
2018-12-26T18:12:58.800Z,62.70
2018-12-26T18:15:25.105Z,62.20
2018-12-26T18:17:51.415Z,62.20
2018-12-26T18:20:17.688Z,62.00
2018-12-26T18:22:43.944Z,62.20
2018-12-26T18:25:10.197Z,62.40
2018-12-26T18:27:36.476Z,62.10
2018-12-26T18:30:02.740Z,62.00
2018-12-26T18:32:29.015Z,62.50
2018-12-26T18:34:55.303Z,62.30
2018-12-26T18:37:22.345Z,62.80
2018-12-26T18:39:49.399Z,63.20
2018-12-26T18:42:15.759Z,63.10
2018-12-26T18:44:42.149Z,62.90
2018-12-26T18:47:08.485Z,63.00
2018-12-26T18:49:34.748Z,63.00
2018-12-26T18:52:00.997Z,63.00
2018-12-26T18:54:27.240Z,63.10
2018-12-26T18:56:54.448Z,63.20
2018-12-26T18:59:20.980Z,63.10
2018-12-26T19:01:47.297Z,63.30
2018-12-26T19:04:14.427Z,63.40
2018-12-26T19:06:40.789Z,63.00
2018-12-26T19:09:07.283Z,63.20
2018-12-26T19:11:34.098Z,63.20
2018-12-26T19:14:00.476Z,63.10
2018-12-26T19:16:26.785Z,63.30
2018-12-26T19:18:53.108Z,63.20
2018-12-26T19:21:19.558Z,63.00
2018-12-26T19:23:45.963Z,63.20
2018-12-26T19:26:13.303Z,63.20
2018-12-26T19:28:39.600Z,63.20
2018-12-26T19:31:06.503Z,63.40
2018-12-26T19:33:32.863Z,63.40
2018-12-26T19:35:59.934Z,63.10
2018-12-26T19:38:26.376Z,63.10
2018-12-26T19:40:52.692Z,63.20
2018-12-26T19:43:19.046Z,63.20
2018-12-26T19:45:45.490Z,63.20
2018-12-26T19:48:11.833Z,63.20
2018-12-26T19:50:38.186Z,62.60
2018-12-26T19:53:09.258Z,62.10
2018-12-26T19:55:35.908Z,62.10
2018-12-26T19:58:02.623Z,62.50
2018-12-26T20:00:30.153Z,62.30
2018-12-26T20:02:56.587Z,62.10
2018-12-26T20:05:23.007Z,62.30
2018-12-26T20:07:49.509Z,62.80
2018-12-26T20:10:15.952Z,62.80
2018-12-26T20:12:42.517Z,63.10
2018-12-26T20:15:08.941Z,63.20
2018-12-26T20:17:36.008Z,63.10
2018-12-26T20:20:02.707Z,63.00
2018-12-26T20:22:29.804Z,63.10
2018-12-26T20:24:56.110Z,63.00
2018-12-26T20:27:23.651Z,62.60
2018-12-26T20:29:50.015Z,62.60
2018-12-26T20:32:16.872Z,63.00
2018-12-26T20:34:43.397Z,63.00
2018-12-26T20:37:09.698Z,63.00
2018-12-26T20:39:35.993Z,63.10
2018-12-26T20:42:02.297Z,63.20
2018-12-26T20:44:28.676Z,62.90
2018-12-26T20:46:55.124Z,63.30
2018-12-26T20:49:21.503Z,62.90
2018-12-26T20:51:47.893Z,63.00
2018-12-26T20:54:14.193Z,63.10
2018-12-26T20:56:40.476Z,63.30
2018-12-26T20:59:06.814Z,63.30
2018-12-26T21:01:33.147Z,63.30
2018-12-26T21:03:59.553Z,63.20
2018-12-26T21:06:27.324Z,63.30
2018-12-26T21:08:53.862Z,63.30
2018-12-26T21:11:20.151Z,63.40
2018-12-26T21:13:46.474Z,63.30
2018-12-26T21:16:12.751Z,63.20
2018-12-26T21:18:39.415Z,63.50
2018-12-26T21:21:05.801Z,63.50
2018-12-26T21:23:32.207Z,63.10
2018-12-26T21:25:58.781Z,62.80
2018-12-26T21:28:25.137Z,62.70
2018-12-26T21:30:52.225Z,62.10
2018-12-26T21:33:18.590Z,62.10
2018-12-26T21:35:44.929Z,62.40
2018-12-26T21:38:11.311Z,62.70
2018-12-26T21:40:37.696Z,62.90
2018-12-26T21:43:04.041Z,63.50
2018-12-26T21:45:30.529Z,63.30
2018-12-26T21:47:56.806Z,63.40
2018-12-26T21:50:23.140Z,63.40
2018-12-26T21:52:50.252Z,62.70
2018-12-26T21:55:17.320Z,62.70
2018-12-26T21:57:44.435Z,62.40
2018-12-26T22:00:10.824Z,62.30
2018-12-26T22:02:37.298Z,62.50
2018-12-26T22:05:03.785Z,62.70
2018-12-26T22:07:30.104Z,62.60
2018-12-26T22:09:56.533Z,61.80
2018-12-26T22:12:23.008Z,62.20
2018-12-26T22:14:49.362Z,62.30
2018-12-26T22:17:15.716Z,62.30
2018-12-26T22:19:42.392Z,62.30
2018-12-26T22:22:08.643Z,62.30
2018-12-26T22:24:34.959Z,62.20
2018-12-26T22:27:01.328Z,62.20
2018-12-26T22:29:27.751Z,62.20
2018-12-26T22:31:54.182Z,62.20
2018-12-26T22:34:21.668Z,62.10
2018-12-26T22:36:48.066Z,62.10
2018-12-26T22:39:14.390Z,62.10
2018-12-26T22:41:41.480Z,62.10
2018-12-26T22:44:08.038Z,62.20
2018-12-26T22:46:34.602Z,62.10
2018-12-26T22:49:01.766Z,62.00
2018-12-26T22:51:28.119Z,62.00
2018-12-26T22:53:54.454Z,62.00
2018-12-26T22:56:21.536Z,62.50
2018-12-26T22:58:47.929Z,62.20
2018-12-26T23:01:14.412Z,62.00
2018-12-26T23:03:41.483Z,62.10
2018-12-26T23:06:07.996Z,62.30
2018-12-26T23:08:35.060Z,62.30
2018-12-26T23:11:01.485Z,62.30
2018-12-26T23:13:27.853Z,62.50
2018-12-26T23:15:54.222Z,62.30
2018-12-26T23:18:20.674Z,62.30
2018-12-26T23:20:47.039Z,62.50
2018-12-26T23:23:13.384Z,62.60
2018-12-26T23:25:39.835Z,62.70
2018-12-26T23:28:06.572Z,62.90
2018-12-26T23:30:32.949Z,63.00
2018-12-26T23:32:59.975Z,63.10
2018-12-26T23:35:26.332Z,63.10
2018-12-26T23:37:53.296Z,62.80
2018-12-26T23:40:19.618Z,62.80
2018-12-26T23:42:45.890Z,62.60
2018-12-26T23:45:12.264Z,62.60
2018-12-26T23:47:39.286Z,62.00
2018-12-26T23:50:05.579Z,62.00
2018-12-26T23:52:31.959Z,62.30
2018-12-26T23:54:58.292Z,62.60
2018-12-26T23:57:24.644Z,62.80
2018-12-26T23:59:51.258Z,62.60
